Fort Providence, Canada
Current Conditions -  °F | °C
As of 4:00 PM on Saturday 25 Oct 2014 (Local Time) from CYHY Reporting Station
Overcast Overcast  
Wind Chill: 23°   Ceiling: 500
Heat Index: 28°   Visibility: 15mi
Dew Point: 25°   Wind: 5mph
Humidity: 86%   Direction: 230°SW
Pressure: 29.94"   Gusts: NA
Location:  61.37°N, 117.65°W
Report Text: CYHY 252200Z 23004KT 15SM OVC005 M02/M04 A2994 RMK SC8 SLP150
Loading
Personal Weather Stations






























Interactive Weather Map
Tropical Storm Tracking
New forecast layout! Learn more

10-Day Weather Forecast

Advertisements
Track Severe Weather on mobile